KGNV 151653Z 31008KT 10SM OVC010 15/12 A3008 RMK AO2 SLP185 T01500122